Aurillac Airport

LFLW · Cantal, Auvergne-Rhône-Alpes, France

METAR history LFLW · Aurillac Airport

Below you see METARs of the last few days. Select a year to browse through older METARs, from the year 2007 onwards.

November 28, 2022

Time Code Weather Temp. Visibility Ceiling Wind METAR/SPECI
16:30
V
7 °C 10 km+ 3,300 ft 240° 240° 5 kt METAR LFLW 281530Z AUTO 24005KT 210V280 9999 -RA SCT012/// BKN033/// OVC045/// ///CB 07/05 Q1016 TEMPO 3000 SHRA BKN014 SCT020TCU
16:00
M
8 °C 10 km+ 2,400 ft Var Var 2 kt METAR LFLW 281500Z AUTO VRB02KT 9999 FEW013/// SCT018/// BKN024/// ///CB 08/05 Q1016 TEMPO 3000 SHRA BKN014 SCT020TCU
15:30
M
8 °C 10 km+ 1,500 ft 260° 260° 5 kt METAR LFLW 281430Z AUTO 26005KT 230V310 9999 BKN015 08/06 Q1016 TEMPO BKN005 FEW020TCU
15:00
V
8 °C 10 km+ 4,800 ft 270° 270° 5 kt METAR LFLW 281400Z AUTO 27005KT 240V300 9999 FEW015 SCT037 BKN048 08/05 Q1016 TEMPO VRB15G25KT 3000 SHRA BKN005 FEW020TCU
14:30
M
8 °C 10 km+ 1,300 ft 290° 290° 3 kt METAR LFLW 281330Z AUTO 29003KT 240V320 9999 BKN013 BKN018 OVC023 08/06 Q1016 TEMPO VRB15G25KT 3000 SHRA BKN005 FEW020TCU
14:00
M
8 °C 10 km+ 2,800 ft 310° 310° 5 kt METAR LFLW 281300Z AUTO 31005KT 260V360 9999 SCT015 BKN028 OVC036 08/06 Q1016 TEMPO VRB15G25KT 3000 SHRA BKN013 SCT020CB
13:30
M
8 °C 10 km+ 1,700 ft 300° 300° 5 kt METAR LFLW 281230Z AUTO 30005KT 240V330 9999 FEW012 BKN017 BKN024 08/06 Q1016 TEMPO VRB15G25KT 3000 SHRA BKN013 SCT020CB
13:00
M
7 °C 10 km+ 2,600 ft 300° 300° 6 kt METAR LFLW 281200Z AUTO 30006KT 260V330 9999 DZ SCT017 BKN026 BKN033 07/05 Q1016 TEMPO VRB15G25KT 3000 SHRA BKN013 SCT020CB
12:30
M
8 °C 10 km+ 1,200 ft 300° 300° 6 kt METAR LFLW 281130Z AUTO 30006KT 270V330 9999 BKN012/// BKN019/// BKN140/// ///TCU 08/06 Q1016 TEMPO VRB15G25KT 3000 SHRA BKN013 SCT020CB
12:00
M
8 °C 10 km+ 1,200 ft 310° 310° 7 kt METAR LFLW 281100Z AUTO 31007KT 270V340 9999 BKN012/// BKN022/// BKN042/// ///TCU 08/06 Q1016 TEMPO 4000 -RA BR BKN004
11:30
I
8 °C 10 km+ 900 ft 310° 310° 7 kt METAR LFLW 281030Z AUTO 31007KT 280V340 9999 BKN009 BKN016 BKN025 08/06 Q1016 TEMPO 4000 -RA BR BKN004
11:00
I
7 °C 10 km+ 900 ft 280° 280° 6 kt METAR LFLW 281000Z AUTO 28006KT 260V320 9999 BKN009/// BKN013/// OVC025/// ///TCU 07/07 Q1016 TEMPO 4000 -RA BR BKN004
10:30
I
7 °C 5 km 500 ft 280° 280° 5 kt METAR LFLW 280930Z AUTO 28005KT 250V340 5000 -RA BR BKN005/// BKN009/// BKN014/// ///CB 07/06 Q1016 TEMPO BKN008
10:00
I
7 °C 4.5 km 600 ft 270° 270° 4 kt METAR LFLW 280900Z AUTO 27004KT 240V310 9999 4500 RA BKN006/// OVC010/// ///TCU 07/07 Q1016 TEMPO NSW BKN008
09:30
M
7 °C 10 km+ 1,500 ft 270° 270° 4 kt METAR LFLW 280830Z AUTO 27004KT 230V290 9999 BKN015/// BKN032/// BKN043/// ///TCU 07/06 Q1016 TEMPO 3000 SHRA BKN003 SCT020TCU
09:00
M
7 °C 10 km+ 1,700 ft 270° 270° 5 kt METAR LFLW 280800Z AUTO 27005KT 240V300 9999 -RA FEW010/// BKN017/// BKN033/// ///CB 07/06 Q1016 TEMPO 3000 SHRA BKN003 SCT020TCU
08:30
M
7 °C 10 km+ 1,000 ft 250° 250° 4 kt METAR LFLW 280730Z AUTO 25004KT 9999 -RA BKN010/// BKN017/// OVC028/// ///CB 07/06 Q1016 TEMPO 3000 SHRA BKN003 SCT020TCU
08:00
I
7 °C 10 km+ 800 ft 230° 230° 4 kt METAR LFLW 280700Z AUTO 23004KT 190V260 9999 OVC008/// ///CB 07/06 Q1015 TEMPO 3000 SHRA BKN003 SCT020TCU
07:30
M
7 °C 7 km 1,300 ft Var Var 2 kt METAR LFLW 280630Z AUTO VRB02KT 7000 -RA FEW008/// BKN013/// OVC020/// ///TCU 07/06 Q1015 TEMPO 3000 SHRA BKN003 SCT020TCU
07:00
M
7 °C 8 km 1,700 ft Var Var 2 kt METAR LFLW 280600Z AUTO VRB02KT 8000 RA FEW008/// BKN017/// BKN026/// ///TCU 07/06 Q1015 TEMPO 3000 SHRA BKN003 SCT020TCU
06:30
V
7 °C 10 km+ 3,400 ft 260° 260° 3 kt METAR LFLW 280530Z AUTO 26003KT 220V300 9999 -RA FEW018/// BKN034/// OVC062/// ///TCU 07/06 Q1015 TEMPO 3000 SHRA BKN003 SCT020TCU
06:00
V
7 °C 10 km+ 7,200 ft Var Var 3 kt METAR LFLW 280500Z AUTO VRB03KT 9999 -RADZ FEW016/// SCT054/// BKN072/// ///TCU 07/06 Q1015
05:30
I
7 °C 10 km+ 500 ft 240° 240° 8 kt METAR LFLW 280430Z AUTO 24008KT 210V280 9999 -RA BKN005/// BKN010/// BKN015/// ///TCU 07/06 Q1015
05:00
I
7 °C 4 km 600 ft 220° 220° 7 kt METAR LFLW 280400Z AUTO 22007KT 180V240 9999 4000 -RA OVC006/// ///TCU 07/07 Q1015
04:30
I
7 °C 4.6 km 800 ft 200° 200° 3 kt METAR LFLW 280330Z AUTO 20003KT 150V250 4600 RA BR BKN008/// OVC015/// ///TCU 07/07 Q1015
04:00
M
7 °C 7 km 1,700 ft 160° 160° 3 kt METAR LFLW 280300Z AUTO 16003KT 120V200 7000 -RA FEW010/// BKN017/// OVC026/// ///TCU 07/07 Q1015
03:30
M
7 °C 9 km 1,300 ft 150° 150° 4 kt METAR LFLW 280230Z AUTO 15004KT 120V180 9000 -RA BKN013/// BKN029/// BKN035/// ///TCU 07/06 Q1016
03:00
M
7 °C 10 km+ 1,600 ft 200° 200° 4 kt METAR LFLW 280200Z AUTO 20004KT 160V240 9999 -RA OVC016/// ///TCU 07/06 Q1016
02:30
M
7 °C 10 km+ 2,000 ft Var Var 3 kt METAR LFLW 280130Z AUTO VRB03KT 9999 -RA OVC020/// ///TCU 07/06 Q1016
02:00
M
7 °C 10 km+ 2,600 ft 160° 160° 4 kt METAR LFLW 280100Z AUTO 16004KT 120V210 9999 -RA OVC026/// ///TCU 07/06 Q1016
01:30
M
8 °C 10 km+ 2,800 ft 170° 170° 6 kt METAR LFLW 280030Z AUTO 17006KT 140V210 9999 -RA BKN028/// BKN035/// BKN048/// ///TCU 08/05 Q1016
01:00
V
8 °C 10 km+ 7,400 ft 150° 150° 9 kt METAR LFLW 280000Z AUTO 15009KT 9999 SCT052/// SCT062/// BKN074/// ///TCU 08/05 Q1017
00:30
V
8 °C 10 km+ 10,000 ft 150° 150° 5 kt METAR LFLW 272330Z AUTO 15005KT 110V200 9999 FEW050 BKN100 OVC120 08/04 Q1017
00:00
V
8 °C 10 km+ - 220° 220° 4 kt METAR LFLW 272300Z AUTO 22004KT 130V280 CAVOK 08/04 Q1017

November 27, 2022

Time Code Weather Temp. Visibility Ceiling Wind METAR/SPECI
23:30
V
8 °C 10 km+ - 130° 130° 7 kt METAR LFLW 272230Z AUTO 13007KT 090V180 CAVOK 08/04 Q1017
23:00
V
8 °C 10 km+ - 150° 150° 7 kt METAR LFLW 272200Z AUTO 15007KT 120V180 CAVOK 08/04 Q1017
22:30
V
7 °C 10 km+ - 090° 090° 3 kt METAR LFLW 272130Z AUTO 09003KT CAVOK 07/03 Q1017
22:00
V
7 °C 10 km+ - Var Var 2 kt METAR LFLW 272100Z AUTO VRB02KT CAVOK 07/02 Q1017
21:30
V
8 °C 10 km+ - 110° 110° 5 kt METAR LFLW 272030Z AUTO 11005KT 080V160 CAVOK 08/02 Q1017
21:00
V
8 °C 10 km+ - 100° 100° 6 kt METAR LFLW 272000Z AUTO 10006KT 080V140 CAVOK 08/02 Q1017
20:30
V
8 °C 10 km+ - 090° 090° 9 kt METAR LFLW 271930Z AUTO 09009KT CAVOK 08/01 Q1017
20:00
V
8 °C 10 km+ - 090° 090° 10 kt METAR LFLW 271900Z AUTO 09010KT CAVOK 08/01 Q1017
19:30
V
8 °C 10 km+ - 100° 100° 9 kt METAR LFLW 271830Z AUTO 10009KT CAVOK 08/00 Q1017
19:00
V
8 °C 10 km+ - 090° 090° 7 kt METAR LFLW 271800Z AUTO 09007KT CAVOK 08/M00 Q1018
18:30
V
9 °C 10 km+ - 110° 110° 8 kt METAR LFLW 271730Z AUTO 11008KT 080V140 CAVOK 09/00 Q1018
18:00
V
9 °C 10 km+ - 100° 100° 7 kt METAR LFLW 271700Z AUTO 10007KT 070V130 CAVOK 09/01 Q1018 NOSIG
17:30
V
9 °C 10 km+ - 090° 090° 7 kt METAR LFLW 271630Z AUTO 09007KT 070V130 CAVOK 09/00 Q1018 NOSIG
17:00
V
9 °C 10 km+ - 100° 100° 6 kt METAR LFLW 271600Z AUTO 10006KT 070V150 CAVOK 09/01 Q1019 NOSIG
16:30
V
10 °C 10 km+ - 110° 110° 8 kt METAR LFLW 271530Z AUTO 11008KT 070V140 CAVOK 10/00 Q1019 NOSIG
16:00
V
11 °C 10 km+ - 120° 120° 8 kt METAR LFLW 271500Z AUTO 12008KT 080V150 CAVOK 11/M00 Q1019 NOSIG
15:30
V
12 °C 10 km+ - 130° 130° 8 kt METAR LFLW 271430Z AUTO 13008KT 100V170 CAVOK 12/M01 Q1019 NOSIG
15:00
V
12 °C 10 km+ - 130° 130° 4 kt METAR LFLW 271400Z AUTO 13004KT 080V190 CAVOK 12/M00 Q1019 NOSIG
14:30
V
12 °C 10 km+ - 120° 120° 9 kt METAR LFLW 271330Z AUTO 12009KT 080V150 CAVOK 12/M00 Q1020 NOSIG
14:00
V
12 °C 10 km+ - 120° 120° 11 kt METAR LFLW 271300Z AUTO 12011KT 090V150 CAVOK 12/M03 Q1020 NOSIG
13:30
V
12 °C 10 km+ - 120° 120° 12 kt METAR LFLW 271230Z AUTO 12012KT CAVOK 12/M01 Q1021 NOSIG
13:00
V
12 °C 10 km+ - 130° 130° 11 kt METAR LFLW 271200Z AUTO 13011KT 090V160 CAVOK 12/M01 Q1021 NOSIG
12:30
V
12 °C 10 km+ - 120° 120° 8 kt METAR LFLW 271130Z AUTO 12008KT 080V140 CAVOK 12/M02 Q1021 NOSIG
12:00
V
12 °C 10 km+ - 110° 110° 8 kt METAR LFLW 271100Z AUTO 11008KT 080V150 CAVOK 12/M02 Q1022 NOSIG
11:30
V
11 °C 10 km+ - 110° 110° 7 kt METAR LFLW 271030Z AUTO 11007KT CAVOK 11/M02 Q1022 NOSIG
11:00
V
10 °C 10 km+ - 100° 100° 5 kt METAR LFLW 271000Z AUTO 10005KT CAVOK 10/M02 Q1023 NOSIG
10:30
V
8 °C 10 km+ - 090° 090° 6 kt METAR LFLW 270930Z AUTO 09006KT CAVOK 08/M02 Q1023 NOSIG
10:00
V
7 °C 10 km+ - 080° 080° 9 kt METAR LFLW 270900Z AUTO 08009KT CAVOK 07/M04 Q1023 NOSIG
09:30
V
6 °C 10 km+ - 080° 080° 11 kt METAR LFLW 270830Z AUTO 08011KT CAVOK 06/M04 Q1023 NOSIG
09:00
V
4 °C 10 km+ - 090° 090° 10 kt METAR LFLW 270800Z AUTO 09010KT CAVOK 04/M05 Q1023 NOSIG
08:30
V
3 °C 10 km+ - 090° 090° 7 kt METAR LFLW 270730Z AUTO 09007KT CAVOK 03/M05 Q1023 NOSIG
08:00
M
3 °C 7 km - 090° 090° 9 kt METAR LFLW 270700Z AUTO 09009KT 7000 NSC 03/M04 Q1023 TEMPO 3000 BR
07:30
V
3 °C 8 km - 090° 090° 9 kt METAR LFLW 270630Z AUTO 09009KT 8000 NSC 03/M04 Q1023 TEMPO 3000 BR
07:00
V
2 °C 10 km+ - 100° 100° 3 kt METAR LFLW 270600Z AUTO 10003KT CAVOK 02/M04 Q1024 TEMPO 3000 BR
06:30
V
3 °C 10 km+ - 100° 100° 4 kt METAR LFLW 270530Z AUTO 10004KT CAVOK 03/M03 Q1024 TEMPO 3000 BR
06:00
V
3 °C 8 km - 080° 080° 10 kt METAR LFLW 270500Z AUTO 08010KT 8000 NSC 03/M02 Q1024
05:30
V
2 °C 10 km+ - 120° 120° 5 kt METAR LFLW 270430Z AUTO 12005KT 080V150 CAVOK 02/M03 Q1024
05:00
V
2 °C 8 km - 100° 100° 6 kt METAR LFLW 270400Z AUTO 10006KT 8000 NSC 02/M02 Q1024
04:30
V
3 °C 8 km - 090° 090° 6 kt METAR LFLW 270330Z AUTO 09006KT 8000 NSC 03/M03 Q1024
04:00
V
3 °C 10 km+ - 100° 100° 5 kt METAR LFLW 270300Z AUTO 10005KT CAVOK 03/M02 Q1024
03:30
V
4 °C 8 km - 090° 090° 8 kt METAR LFLW 270230Z AUTO 09008KT 8000 NSC 04/M03 Q1025
03:00
V
3 °C 8 km - 110° 110° 5 kt METAR LFLW 270200Z AUTO 11005KT 8000 NSC 03/M01 Q1025
02:30
V
4 °C 10 km+ - 100° 100° 3 kt METAR LFLW 270130Z AUTO 10003KT CAVOK 04/M02 Q1025
02:00
V
4 °C 8 km - 100° 100° 7 kt METAR LFLW 270100Z AUTO 10007KT 8000 NSC 04/M02 Q1025
01:30
V
3 °C 8 km - 100° 100° 5 kt METAR LFLW 270030Z AUTO 10005KT 8000 NSC 03/M02 Q1025
01:00
V
2 °C 8 km - 100° 100° 5 kt METAR LFLW 270000Z AUTO 10005KT 8000 NSC 02/M02 Q1025
00:30
V
2 °C 10 km+ - 110° 110° 5 kt METAR LFLW 262330Z AUTO 11005KT CAVOK 02/M02 Q1026
00:00
V
3 °C 8 km - 100° 100° 5 kt METAR LFLW 262300Z AUTO 10005KT 8000 NSC 03/M02 Q1026

November 26, 2022

Time Code Weather Temp. Visibility Ceiling Wind METAR/SPECI
23:30
V
2 °C 8 km - 110° 110° 5 kt METAR LFLW 262230Z AUTO 11005KT 8000 NSC 02/M02 Q1026
23:00
V
2 °C 8 km - 090° 090° 8 kt METAR LFLW 262200Z AUTO 09008KT 8000 NSC 02/M01 Q1026
22:30
V
2 °C 10 km+ - 110° 110° 4 kt METAR LFLW 262130Z AUTO 11004KT CAVOK 02/M01 Q1027
22:00
V
2 °C 8 km - 100° 100° 6 kt METAR LFLW 262100Z AUTO 10006KT 8000 NSC 02/M01 Q1026
21:30
V
2 °C 8 km - 100° 100° 5 kt METAR LFLW 262030Z AUTO 10005KT 8000 NSC 02/M01 Q1027
21:00
V
3 °C 9 km - 090° 090° 7 kt METAR LFLW 262000Z AUTO 09007KT 070V150 9000 NSC 03/01 Q1027
20:30
V
2 °C 10 km+ - 100° 100° 5 kt METAR LFLW 261930Z AUTO 10005KT CAVOK 02/01 Q1027
20:00
V
3 °C 10 km+ - 110° 110° 4 kt METAR LFLW 261900Z AUTO 11004KT CAVOK 03/02 Q1027
19:30
V
4 °C 10 km+ - 140° 140° 3 kt METAR LFLW 261830Z AUTO 14003KT CAVOK 04/03 Q1027
19:00
V
4 °C 10 km+ - 100° 100° 3 kt METAR LFLW 261800Z AUTO 10003KT CAVOK 04/03 Q1027
18:30
V
5 °C 10 km+ - 120° 120° 5 kt METAR LFLW 261730Z AUTO 12005KT CAVOK 05/04 Q1027
18:00
V
5 °C 10 km+ - 120° 120° 3 kt METAR LFLW 261700Z AUTO 12003KT CAVOK 05/05 Q1027 NOSIG
17:30
V
6 °C 10 km+ - 120° 120° 4 kt METAR LFLW 261630Z AUTO 12004KT CAVOK 06/05 Q1027 NOSIG
17:00
V
6 °C 10 km+ - 130° 130° 4 kt METAR LFLW 261600Z AUTO 13004KT CAVOK 06/05 Q1027 NOSIG
16:30
V
7 °C 10 km+ - 080° 080° 2 kt METAR LFLW 261530Z AUTO 08002KT CAVOK 07/05 Q1027 NOSIG
16:00
V
8 °C 10 km+ - Var Var 2 kt METAR LFLW 261500Z AUTO VRB02KT CAVOK 08/05 Q1027 NOSIG
15:30
V
9 °C 10 km+ - 300° 300° 5 kt METAR LFLW 261430Z AUTO 30005KT 250V340 CAVOK 09/05 Q1028 NOSIG
15:00
V
9 °C 10 km+ - 310° 310° 4 kt METAR LFLW 261400Z AUTO 31004KT 290V360 CAVOK 09/05 Q1028 NOSIG
14:30
V
9 °C 10 km+ - Var Var 2 kt METAR LFLW 261330Z AUTO VRB02KT CAVOK 09/04 Q1028 NOSIG
14:00
V
9 °C 10 km+ - Var 000° 0 kt METAR LFLW 261300Z AUTO 00000KT CAVOK 09/05 Q1028 NOSIG
13:30
V
8 °C 10 km+ - 090° 090° 3 kt METAR LFLW 261230Z AUTO 09003KT 070V130 CAVOK 08/04 Q1028 NOSIG
13:00
V
8 °C 10 km+ - Var Var 2 kt METAR LFLW 261200Z AUTO VRB02KT CAVOK 08/03 Q1029 NOSIG
12:30
V
7 °C 10 km+ - Var Var 2 kt METAR LFLW 261130Z AUTO VRB02KT CAVOK 07/05 Q1029 NOSIG
12:00
V
6 °C 10 km+ - Var 000° 0 kt METAR LFLW 261100Z AUTO 00000KT CAVOK 06/04 Q1030 NOSIG
11:30
V
5 °C 10 km+ - Var Var 2 kt METAR LFLW 261030Z AUTO VRB02KT CAVOK 05/04 Q1030 NOSIG
11:00
V
3 °C 10 km+ - 090° 090° 4 kt METAR LFLW 261000Z AUTO 09004KT CAVOK 03/03 Q1030 NOSIG

We and third parties follow your internet behavior on our website with cookies. If you continue, we assume you agree with our cookie policy.